sensor_id;sensor_type;location;lat;lon;timestamp;P1;durP1;ratioP1;P2;durP2;ratioP2
71696;SDS011;68167;59.120;37.898;2024-03-02T00:00:23;7.53;;;4.30;;
71696;SDS011;68167;59.120;37.898;2024-03-02T00:02:51;5.60;;;3.93;;
71696;SDS011;68167;59.120;37.898;2024-03-02T00:05:21;6.73;;;3.80;;
71696;SDS011;68167;59.120;37.898;2024-03-02T00:07:55;6.70;;;3.73;;
71696;SDS011;68167;59.120;37.898;2024-03-02T00:10:27;6.50;;;4.00;;
71696;SDS011;68167;59.120;37.898;2024-03-02T00:13:03;7.57;;;4.30;;
71696;SDS011;68167;59.120;37.898;2024-03-02T00:18:02;7.87;;;4.40;;
71696;SDS011;68167;59.120;37.898;2024-03-02T00:20:30;5.70;;;3.63;;
71696;SDS011;68167;59.120;37.898;2024-03-02T00:23:00;5.80;;;3.93;;
71696;SDS011;68167;59.120;37.898;2024-03-02T00:26:12;5.27;;;3.60;;
71696;SDS011;68167;59.120;37.898;2024-03-02T00:28:23;5.67;;;2.83;;
71696;SDS011;68167;59.120;37.898;2024-03-02T00:33:43;6.83;;;3.60;;
71696;SDS011;68167;59.120;37.898;2024-03-02T00:36:15;4.77;;;3.10;;
71696;SDS011;68167;59.120;37.898;2024-03-02T00:38:49;5.40;;;3.47;;
71696;SDS011;68167;59.120;37.898;2024-03-02T00:41:19;8.20;;;3.47;;
71696;SDS011;68167;59.120;37.898;2024-03-02T00:46:40;4.47;;;3.20;;
71696;SDS011;68167;59.120;37.898;2024-03-02T00:51:37;5.43;;;3.07;;
71696;SDS011;68167;59.120;37.898;2024-03-02T00:54:04;5.50;;;3.13;;
71696;SDS011;68167;59.120;37.898;2024-03-02T00:56:37;5.93;;;3.47;;
71696;SDS011;68167;59.120;37.898;2024-03-02T00:59:03;4.40;;;3.57;;
71696;SDS011;68167;59.120;37.898;2024-03-02T01:01:29;6.83;;;3.67;;
71696;SDS011;68167;59.120;37.898;2024-03-02T01:03:56;5.40;;;3.70;;
71696;SDS011;68167;59.120;37.898;2024-03-02T01:06:22;5.80;;;4.03;;
71696;SDS011;68167;59.120;37.898;2024-03-02T01:08:48;5.43;;;3.47;;
71696;SDS011;68167;59.120;37.898;2024-03-02T01:11:17;6.80;;;3.70;;
71696;SDS011;68167;59.120;37.898;2024-03-02T01:13:44;6.57;;;3.80;;
71696;SDS011;68167;59.120;37.898;2024-03-02T01:16:12;6.23;;;3.70;;
71696;SDS011;68167;59.120;37.898;2024-03-02T01:18:38;7.00;;;3.67;;
71696;SDS011;68167;59.120;37.898;2024-03-02T01:21:04;5.73;;;3.40;;
71696;SDS011;68167;59.120;37.898;2024-03-02T01:23:30;5.90;;;4.07;;
71696;SDS011;68167;59.120;37.898;2024-03-02T01:25:57;8.33;;;4.00;;
71696;SDS011;68167;59.120;37.898;2024-03-02T01:28:23;5.83;;;3.87;;
71696;SDS011;68167;59.120;37.898;2024-03-02T01:30:49;6.07;;;4.10;;
71696;SDS011;68167;59.120;37.898;2024-03-02T01:33:16;6.73;;;4.00;;
71696;SDS011;68167;59.120;37.898;2024-03-02T01:35:47;5.47;;;3.07;;
71696;SDS011;68167;59.120;37.898;2024-03-02T01:38:13;4.97;;;3.37;;
71696;SDS011;68167;59.120;37.898;2024-03-02T01:40:39;6.47;;;3.20;;
71696;SDS011;68167;59.120;37.898;2024-03-02T01:43:06;5.97;;;3.40;;
71696;SDS011;68167;59.120;37.898;2024-03-02T01:45:33;5.83;;;3.30;;
71696;SDS011;68167;59.120;37.898;2024-03-02T01:48:01;4.80;;;3.37;;
71696;SDS011;68167;59.120;37.898;2024-03-02T01:50:29;5.33;;;3.40;;
71696;SDS011;68167;59.120;37.898;2024-03-02T01:52:58;5.07;;;2.90;;
71696;SDS011;68167;59.120;37.898;2024-03-02T01:55:25;5.40;;;3.40;;
71696;SDS011;68167;59.120;37.898;2024-03-02T01:57:52;6.23;;;3.30;;
71696;SDS011;68167;59.120;37.898;2024-03-02T02:00:20;5.57;;;3.63;;
71696;SDS011;68167;59.120;37.898;2024-03-02T02:02:47;4.70;;;3.30;;
71696;SDS011;68167;59.120;37.898;2024-03-02T02:05:14;7.87;;;3.70;;
71696;SDS011;68167;59.120;37.898;2024-03-02T02:07:41;5.37;;;3.40;;
71696;SDS011;68167;59.120;37.898;2024-03-02T02:10:09;5.63;;;3.30;;
71696;SDS011;68167;59.120;37.898;2024-03-02T02:12:37;6.10;;;3.50;;
71696;SDS011;68167;59.120;37.898;2024-03-02T02:15:49;5.70;;;3.93;;
71696;SDS011;68167;59.120;37.898;2024-03-02T02:17:54;9.93;;;4.50;;
71696;SDS011;68167;59.120;37.898;2024-03-02T02:20:41;5.67;;;3.63;;
71696;SDS011;68167;59.120;37.898;2024-03-02T02:23:07;7.23;;;3.97;;
71696;SDS011;68167;59.120;37.898;2024-03-02T02:25:35;7.47;;;3.70;;
71696;SDS011;68167;59.120;37.898;2024-03-02T02:28:02;5.90;;;3.67;;
71696;SDS011;68167;59.120;37.898;2024-03-02T02:30:29;7.00;;;4.17;;
71696;SDS011;68167;59.120;37.898;2024-03-02T02:32:57;7.07;;;4.40;;
71696;SDS011;68167;59.120;37.898;2024-03-02T02:35:24;7.20;;;4.10;;
71696;SDS011;68167;59.120;37.898;2024-03-02T02:37:51;5.77;;;3.80;;
71696;SDS011;68167;59.120;37.898;2024-03-02T02:40:19;7.73;;;4.00;;
71696;SDS011;68167;59.120;37.898;2024-03-02T02:42:46;7.23;;;4.17;;
71696;SDS011;68167;59.120;37.898;2024-03-02T02:45:12;6.07;;;4.03;;
71696;SDS011;68167;59.120;37.898;2024-03-02T02:47:41;6.60;;;4.17;;
71696;SDS011;68167;59.120;37.898;2024-03-02T02:50:08;5.27;;;3.60;;
71696;SDS011;68167;59.120;37.898;2024-03-02T02:52:35;6.23;;;3.80;;
71696;SDS011;68167;59.120;37.898;2024-03-02T02:55:04;5.30;;;3.70;;
71696;SDS011;68167;59.120;37.898;2024-03-02T02:57:34;7.63;;;3.60;;
71696;SDS011;68167;59.120;37.898;2024-03-02T03:00:05;5.23;;;3.60;;
71696;SDS011;68167;59.120;37.898;2024-03-02T03:02:37;6.57;;;3.80;;
71696;SDS011;68167;59.120;37.898;2024-03-02T03:05:05;6.40;;;3.90;;
71696;SDS011;68167;59.120;37.898;2024-03-02T03:07:32;6.13;;;3.97;;
71696;SDS011;68167;59.120;37.898;2024-03-02T03:10:00;7.30;;;4.40;;
71696;SDS011;68167;59.120;37.898;2024-03-02T03:12:27;6.37;;;3.90;;
71696;SDS011;68167;59.120;37.898;2024-03-02T03:14:53;9.77;;;5.87;;
71696;SDS011;68167;59.120;37.898;2024-03-02T03:17:21;5.80;;;4.23;;
71696;SDS011;68167;59.120;37.898;2024-03-02T03:19:48;6.83;;;4.30;;
71696;SDS011;68167;59.120;37.898;2024-03-02T03:22:14;7.27;;;4.30;;
71696;SDS011;68167;59.120;37.898;2024-03-02T03:24:41;7.60;;;4.30;;
71696;SDS011;68167;59.120;37.898;2024-03-02T03:27:07;6.93;;;4.40;;
71696;SDS011;68167;59.120;37.898;2024-03-02T03:29:33;6.47;;;3.60;;
71696;SDS011;68167;59.120;37.898;2024-03-02T03:32:01;5.30;;;3.50;;
71696;SDS011;68167;59.120;37.898;2024-03-02T03:34:28;6.07;;;3.90;;
71696;SDS011;68167;59.120;37.898;2024-03-02T03:36:54;5.77;;;4.17;;
71696;SDS011;68167;59.120;37.898;2024-03-02T03:39:21;6.30;;;3.67;;
71696;SDS011;68167;59.120;37.898;2024-03-02T03:41:47;6.80;;;3.57;;
71696;SDS011;68167;59.120;37.898;2024-03-02T03:44:13;5.73;;;3.23;;
71696;SDS011;68167;59.120;37.898;2024-03-02T03:46:39;4.43;;;3.23;;
71696;SDS011;68167;59.120;37.898;2024-03-02T03:49:05;3.87;;;2.80;;
71696;SDS011;68167;59.120;37.898;2024-03-02T03:51:32;5.10;;;2.80;;
71696;SDS011;68167;59.120;37.898;2024-03-02T03:53:58;4.73;;;3.33;;
71696;SDS011;68167;59.120;37.898;2024-03-02T03:56:24;5.90;;;3.10;;
71696;SDS011;68167;59.120;37.898;2024-03-02T03:58:51;5.00;;;3.10;;
71696;SDS011;68167;59.120;37.898;2024-03-02T04:01:17;5.53;;;3.70;;
71696;SDS011;68167;59.120;37.898;2024-03-02T04:03:43;5.93;;;3.27;;
71696;SDS011;68167;59.120;37.898;2024-03-02T04:06:09;5.40;;;3.03;;
71696;SDS011;68167;59.120;37.898;2024-03-02T04:08:36;7.00;;;4.30;;
71696;SDS011;68167;59.120;37.898;2024-03-02T04:11:02;4.07;;;3.00;;
71696;SDS011;68167;59.120;37.898;2024-03-02T04:13:28;4.80;;;3.53;;
71696;SDS011;68167;59.120;37.898;2024-03-02T04:15:54;4.67;;;3.10;;
71696;SDS011;68167;59.120;37.898;2024-03-02T04:18:21;4.37;;;3.00;;
71696;SDS011;68167;59.120;37.898;2024-03-02T04:20:47;5.13;;;3.20;;
71696;SDS011;68167;59.120;37.898;2024-03-02T04:23:13;4.50;;;3.00;;
71696;SDS011;68167;59.120;37.898;2024-03-02T04:25:40;4.57;;;2.60;;
71696;SDS011;68167;59.120;37.898;2024-03-02T04:28:06;6.17;;;3.73;;
71696;SDS011;68167;59.120;37.898;2024-03-02T04:30:32;4.77;;;3.40;;
71696;SDS011;68167;59.120;37.898;2024-03-02T04:32:59;4.57;;;2.97;;
71696;SDS011;68167;59.120;37.898;2024-03-02T04:35:26;4.63;;;3.00;;
71696;SDS011;68167;59.120;37.898;2024-03-02T04:37:53;4.77;;;2.80;;
71696;SDS011;68167;59.120;37.898;2024-03-02T04:40:19;4.93;;;3.50;;
71696;SDS011;68167;59.120;37.898;2024-03-02T04:42:45;4.57;;;3.03;;
71696;SDS011;68167;59.120;37.898;2024-03-02T04:45:12;6.33;;;3.37;;
71696;SDS011;68167;59.120;37.898;2024-03-02T04:47:38;6.17;;;3.70;;
71696;SDS011;68167;59.120;37.898;2024-03-02T04:50:04;4.53;;;3.30;;
71696;SDS011;68167;59.120;37.898;2024-03-02T04:52:33;6.23;;;3.50;;
71696;SDS011;68167;59.120;37.898;2024-03-02T04:54:59;5.77;;;3.50;;
71696;SDS011;68167;59.120;37.898;2024-03-02T04:57:44;6.43;;;3.47;;
71696;SDS011;68167;59.120;37.898;2024-03-02T05:00:12;3.90;;;2.90;;
71696;SDS011;68167;59.120;37.898;2024-03-02T05:02:38;5.17;;;3.43;;
71696;SDS011;68167;59.120;37.898;2024-03-02T05:05:05;4.87;;;3.30;;
71696;SDS011;68167;59.120;37.898;2024-03-02T05:07:31;5.10;;;3.43;;
71696;SDS011;68167;59.120;37.898;2024-03-02T05:09:57;5.33;;;3.13;;
71696;SDS011;68167;59.120;37.898;2024-03-02T05:12:24;5.30;;;3.27;;
71696;SDS011;68167;59.120;37.898;2024-03-02T05:15:09;5.00;;;3.40;;
71696;SDS011;68167;59.120;37.898;2024-03-02T05:17:37;4.20;;;2.93;;
71696;SDS011;68167;59.120;37.898;2024-03-02T05:20:04;6.07;;;3.50;;
71696;SDS011;68167;59.120;37.898;2024-03-02T05:22:31;7.43;;;3.33;;
71696;SDS011;68167;59.120;37.898;2024-03-02T05:25:00;6.07;;;3.57;;
71696;SDS011;68167;59.120;37.898;2024-03-02T05:27:31;5.53;;;3.60;;
71696;SDS011;68167;59.120;37.898;2024-03-02T05:29:59;6.67;;;3.70;;
71696;SDS011;68167;59.120;37.898;2024-03-02T05:32:26;6.23;;;3.50;;
71696;SDS011;68167;59.120;37.898;2024-03-02T05:34:53;5.40;;;3.53;;
71696;SDS011;68167;59.120;37.898;2024-03-02T05:37:19;6.00;;;3.53;;
71696;SDS011;68167;59.120;37.898;2024-03-02T05:39:46;4.50;;;3.13;;
71696;SDS011;68167;59.120;37.898;2024-03-02T05:42:12;5.57;;;3.63;;
71696;SDS011;68167;59.120;37.898;2024-03-02T05:44:38;5.10;;;3.10;;
71696;SDS011;68167;59.120;37.898;2024-03-02T05:47:05;5.70;;;3.70;;
71696;SDS011;68167;59.120;37.898;2024-03-02T05:49:35;6.43;;;3.67;;
71696;SDS011;68167;59.120;37.898;2024-03-02T05:52:01;4.40;;;3.60;;
71696;SDS011;68167;59.120;37.898;2024-03-02T05:54:28;6.17;;;4.10;;
71696;SDS011;68167;59.120;37.898;2024-03-02T05:56:55;5.83;;;4.00;;
71696;SDS011;68167;59.120;37.898;2024-03-02T05:59:21;5.10;;;3.27;;
71696;SDS011;68167;59.120;37.898;2024-03-02T06:01:48;5.53;;;3.43;;
71696;SDS011;68167;59.120;37.898;2024-03-02T06:04:18;7.30;;;3.77;;
71696;SDS011;68167;59.120;37.898;2024-03-02T06:06:45;6.27;;;3.93;;
71696;SDS011;68167;59.120;37.898;2024-03-02T06:09:14;5.37;;;3.73;;
71696;SDS011;68167;59.120;37.898;2024-03-02T06:11:42;6.40;;;3.70;;
71696;SDS011;68167;59.120;37.898;2024-03-02T06:14:13;3.83;;;2.90;;
71696;SDS011;68167;59.120;37.898;2024-03-02T06:16:40;6.10;;;3.30;;
71696;SDS011;68167;59.120;37.898;2024-03-02T06:19:06;5.63;;;2.83;;
71696;SDS011;68167;59.120;37.898;2024-03-02T06:21:32;4.37;;;2.97;;
71696;SDS011;68167;59.120;37.898;2024-03-02T06:23:59;5.17;;;3.07;;
71696;SDS011;68167;59.120;37.898;2024-03-02T06:26:25;3.80;;;2.67;;
71696;SDS011;68167;59.120;37.898;2024-03-02T06:28:51;4.57;;;2.77;;
71696;SDS011;68167;59.120;37.898;2024-03-02T06:31:18;5.53;;;3.03;;
71696;SDS011;68167;59.120;37.898;2024-03-02T06:33:44;4.47;;;3.00;;
71696;SDS011;68167;59.120;37.898;2024-03-02T06:36:14;4.00;;;2.63;;
71696;SDS011;68167;59.120;37.898;2024-03-02T06:38:41;4.57;;;3.33;;
71696;SDS011;68167;59.120;37.898;2024-03-02T06:41:08;3.90;;;2.33;;
71696;SDS011;68167;59.120;37.898;2024-03-02T06:43:34;4.37;;;2.53;;
71696;SDS011;68167;59.120;37.898;2024-03-02T06:46:06;4.10;;;2.60;;
71696;SDS011;68167;59.120;37.898;2024-03-02T06:48:35;4.00;;;2.70;;
71696;SDS011;68167;59.120;37.898;2024-03-02T06:51:01;4.70;;;2.50;;
71696;SDS011;68167;59.120;37.898;2024-03-02T06:53:28;5.83;;;2.97;;
71696;SDS011;68167;59.120;37.898;2024-03-02T06:55:57;5.53;;;2.60;;
71696;SDS011;68167;59.120;37.898;2024-03-02T06:58:23;3.67;;;3.00;;
71696;SDS011;68167;59.120;37.898;2024-03-02T07:00:50;4.53;;;2.90;;
71696;SDS011;68167;59.120;37.898;2024-03-02T07:03:17;5.67;;;2.90;;
71696;SDS011;68167;59.120;37.898;2024-03-02T07:05:43;4.43;;;2.60;;
71696;SDS011;68167;59.120;37.898;2024-03-02T07:08:13;5.17;;;2.50;;
71696;SDS011;68167;59.120;37.898;2024-03-02T07:10:39;4.57;;;2.60;;
71696;SDS011;68167;59.120;37.898;2024-03-02T07:13:06;3.70;;;2.57;;
71696;SDS011;68167;59.120;37.898;2024-03-02T07:15:32;4.20;;;2.33;;
71696;SDS011;68167;59.120;37.898;2024-03-02T07:18:17;4.27;;;2.97;;
71696;SDS011;68167;59.120;37.898;2024-03-02T07:20:43;3.10;;;2.47;;
71696;SDS011;68167;59.120;37.898;2024-03-02T07:23:09;3.17;;;2.40;;
71696;SDS011;68167;59.120;37.898;2024-03-02T07:25:35;6.50;;;3.43;;
71696;SDS011;68167;59.120;37.898;2024-03-02T07:28:02;4.50;;;2.33;;
71696;SDS011;68167;59.120;37.898;2024-03-02T07:30:30;7.17;;;4.30;;
71696;SDS011;68167;59.120;37.898;2024-03-02T07:32:56;6.87;;;4.07;;
71696;SDS011;68167;59.120;37.898;2024-03-02T07:35:22;17.00;;;10.03;;
71696;SDS011;68167;59.120;37.898;2024-03-02T07:37:52;22.07;;;12.17;;
71696;SDS011;68167;59.120;37.898;2024-03-02T07:40:20;21.53;;;12.37;;
71696;SDS011;68167;59.120;37.898;2024-03-02T07:42:46;17.63;;;10.50;;
71696;SDS011;68167;59.120;37.898;2024-03-02T07:45:13;9.77;;;6.73;;
71696;SDS011;68167;59.120;37.898;2024-03-02T07:47:39;18.93;;;10.37;;
71696;SDS011;68167;59.120;37.898;2024-03-02T07:50:06;8.70;;;6.27;;
71696;SDS011;68167;59.120;37.898;2024-03-02T07:52:33;13.77;;;8.10;;
71696;SDS011;68167;59.120;37.898;2024-03-02T07:54:59;11.27;;;6.10;;
71696;SDS011;68167;59.120;37.898;2024-03-02T07:57:25;14.00;;;8.13;;
71696;SDS011;68167;59.120;37.898;2024-03-02T07:59:52;8.23;;;5.67;;
71696;SDS011;68167;59.120;37.898;2024-03-02T08:02:19;7.03;;;3.60;;
71696;SDS011;68167;59.120;37.898;2024-03-02T08:04:45;6.30;;;4.50;;
71696;SDS011;68167;59.120;37.898;2024-03-02T08:07:12;10.40;;;6.10;;
71696;SDS011;68167;59.120;37.898;2024-03-02T08:09:38;5.27;;;3.40;;
71696;SDS011;68167;59.120;37.898;2024-03-02T08:12:05;9.10;;;5.67;;
71696;SDS011;68167;59.120;37.898;2024-03-02T08:14:34;10.73;;;6.37;;
71696;SDS011;68167;59.120;37.898;2024-03-02T08:17:00;12.10;;;8.03;;
71696;SDS011;68167;59.120;37.898;2024-03-02T08:19:30;10.83;;;6.90;;
71696;SDS011;68167;59.120;37.898;2024-03-02T08:21:57;8.93;;;5.47;;
71696;SDS011;68167;59.120;37.898;2024-03-02T08:24:25;9.07;;;5.77;;
71696;SDS011;68167;59.120;37.898;2024-03-02T08:26:55;8.57;;;5.40;;
71696;SDS011;68167;59.120;37.898;2024-03-02T08:29:21;8.80;;;4.47;;
71696;SDS011;68167;59.120;37.898;2024-03-02T08:31:48;7.60;;;4.70;;
71696;SDS011;68167;59.120;37.898;2024-03-02T08:34:18;9.47;;;5.30;;
71696;SDS011;68167;59.120;37.898;2024-03-02T08:36:53;5.97;;;4.30;;
71696;SDS011;68167;59.120;37.898;2024-03-02T08:39:22;6.93;;;4.47;;
71696;SDS011;68167;59.120;37.898;2024-03-02T08:41:51;5.10;;;3.87;;
71696;SDS011;68167;59.120;37.898;2024-03-02T08:44:22;6.40;;;4.10;;
71696;SDS011;68167;59.120;37.898;2024-03-02T08:46:49;8.37;;;4.53;;
71696;SDS011;68167;59.120;37.898;2024-03-02T08:49:15;8.43;;;5.23;;
71696;SDS011;68167;59.120;37.898;2024-03-02T08:51:41;6.40;;;4.73;;
71696;SDS011;68167;59.120;37.898;2024-03-02T08:54:08;6.53;;;4.57;;
71696;SDS011;68167;59.120;37.898;2024-03-02T08:56:34;6.87;;;4.20;;
71696;SDS011;68167;59.120;37.898;2024-03-02T08:59:02;5.37;;;3.53;;
71696;SDS011;68167;59.120;37.898;2024-03-02T09:01:34;7.77;;;4.13;;
71696;SDS011;68167;59.120;37.898;2024-03-02T09:04:03;6.80;;;3.67;;
71696;SDS011;68167;59.120;37.898;2024-03-02T09:06:29;6.00;;;3.27;;
71696;SDS011;68167;59.120;37.898;2024-03-02T09:08:58;4.40;;;2.60;;
71696;SDS011;68167;59.120;37.898;2024-03-02T09:11:27;6.13;;;3.47;;
71696;SDS011;68167;59.120;37.898;2024-03-02T09:13:55;5.40;;;2.80;;
71696;SDS011;68167;59.120;37.898;2024-03-02T09:16:23;4.30;;;2.93;;
71696;SDS011;68167;59.120;37.898;2024-03-02T09:18:53;4.10;;;2.70;;
71696;SDS011;68167;59.120;37.898;2024-03-02T09:21:19;7.00;;;4.03;;
71696;SDS011;68167;59.120;37.898;2024-03-02T09:23:45;7.95;;;5.65;;
71696;SDS011;68167;59.120;37.898;2024-03-02T09:26:15;4.97;;;2.77;;
71696;SDS011;68167;59.120;37.898;2024-03-02T09:28:46;8.70;;;4.33;;
71696;SDS011;68167;59.120;37.898;2024-03-02T09:31:15;5.83;;;3.73;;
71696;SDS011;68167;59.120;37.898;2024-03-02T09:33:41;5.87;;;3.90;;
71696;SDS011;68167;59.120;37.898;2024-03-02T09:36:17;5.23;;;3.30;;
71696;SDS011;68167;59.120;37.898;2024-03-02T09:38:44;4.43;;;3.27;;
71696;SDS011;68167;59.120;37.898;2024-03-02T09:41:11;4.43;;;3.20;;
71696;SDS011;68167;59.120;37.898;2024-03-02T09:43:41;8.00;;;4.00;;
71696;SDS011;68167;59.120;37.898;2024-03-02T09:46:11;8.03;;;3.53;;
71696;SDS011;68167;59.120;37.898;2024-03-02T09:48:39;2.43;;;1.70;;
71696;SDS011;68167;59.120;37.898;2024-03-02T09:51:05;2.97;;;2.20;;
71696;SDS011;68167;59.120;37.898;2024-03-02T09:53:32;4.53;;;3.27;;
71696;SDS011;68167;59.120;37.898;2024-03-02T09:56:00;4.57;;;2.70;;
71696;SDS011;68167;59.120;37.898;2024-03-02T09:58:30;3.13;;;2.10;;
71696;SDS011;68167;59.120;37.898;2024-03-02T10:00:56;3.53;;;2.53;;
71696;SDS011;68167;59.120;37.898;2024-03-02T10:03:23;4.67;;;2.40;;
71696;SDS011;68167;59.120;37.898;2024-03-02T10:05:52;3.20;;;2.17;;
71696;SDS011;68167;59.120;37.898;2024-03-02T10:08:19;3.73;;;2.50;;
71696;SDS011;68167;59.120;37.898;2024-03-02T10:10:48;4.23;;;2.37;;
71696;SDS011;68167;59.120;37.898;2024-03-02T10:13:14;2.83;;;1.90;;
71696;SDS011;68167;59.120;37.898;2024-03-02T10:15:43;4.30;;;2.50;;
71696;SDS011;68167;59.120;37.898;2024-03-02T10:18:13;4.17;;;2.53;;
71696;SDS011;68167;59.120;37.898;2024-03-02T10:20:41;2.33;;;1.87;;
71696;SDS011;68167;59.120;37.898;2024-03-02T10:23:11;3.30;;;2.40;;
71696;SDS011;68167;59.120;37.898;2024-03-02T10:25:39;4.33;;;2.27;;
71696;SDS011;68167;59.120;37.898;2024-03-02T10:28:05;3.00;;;1.93;;
71696;SDS011;68167;59.120;37.898;2024-03-02T10:30:32;3.63;;;2.20;;
71696;SDS011;68167;59.120;37.898;2024-03-02T10:33:00;2.97;;;2.10;;
71696;SDS011;68167;59.120;37.898;2024-03-02T10:35:28;4.00;;;2.80;;
71696;SDS011;68167;59.120;37.898;2024-03-02T10:37:54;3.90;;;2.77;;
71696;SDS011;68167;59.120;37.898;2024-03-02T10:40:21;3.43;;;2.20;;
71696;SDS011;68167;59.120;37.898;2024-03-02T10:42:52;4.53;;;2.83;;
71696;SDS011;68167;59.120;37.898;2024-03-02T10:45:21;4.03;;;2.50;;
71696;SDS011;68167;59.120;37.898;2024-03-02T10:47:50;3.87;;;2.53;;
71696;SDS011;68167;59.120;37.898;2024-03-02T10:50:17;5.70;;;3.20;;
71696;SDS011;68167;59.120;37.898;2024-03-02T10:52:43;5.83;;;2.93;;
71696;SDS011;68167;59.120;37.898;2024-03-02T10:55:10;4.50;;;2.50;;
71696;SDS011;68167;59.120;37.898;2024-03-02T11:00:17;3.43;;;2.57;;
71696;SDS011;68167;59.120;37.898;2024-03-02T11:02:51;3.70;;;3.00;;
71696;SDS011;68167;59.120;37.898;2024-03-02T11:05:27;4.80;;;3.20;;
71696;SDS011;68167;59.120;37.898;2024-03-02T11:08:00;8.67;;;4.97;;
71696;SDS011;68167;59.120;37.898;2024-03-02T11:10:34;7.10;;;4.63;;
71696;SDS011;68167;59.120;37.898;2024-03-02T11:13:11;5.47;;;3.73;;
71696;SDS011;68167;59.120;37.898;2024-03-02T11:15:40;4.73;;;3.30;;
71696;SDS011;68167;59.120;37.898;2024-03-02T11:18:10;13.77;;;5.20;;
71696;SDS011;68167;59.120;37.898;2024-03-02T11:20:38;5.57;;;3.80;;
71696;SDS011;68167;59.120;37.898;2024-03-02T11:23:09;5.33;;;4.00;;
71696;SDS011;68167;59.120;37.898;2024-03-02T11:25:35;7.43;;;4.50;;
71696;SDS011;68167;59.120;37.898;2024-03-02T11:28:03;8.50;;;5.17;;
71696;SDS011;68167;59.120;37.898;2024-03-02T11:33:01;8.03;;;5.23;;
71696;SDS011;68167;59.120;37.898;2024-03-02T11:35:42;6.87;;;4.47;;
71696;SDS011;68167;59.120;37.898;2024-03-02T11:38:12;9.43;;;5.50;;
71696;SDS011;68167;59.120;37.898;2024-03-02T11:40:39;8.63;;;5.33;;
71696;SDS011;68167;59.120;37.898;2024-03-02T11:43:06;10.07;;;6.27;;
71696;SDS011;68167;59.120;37.898;2024-03-02T11:45:34;10.07;;;6.03;;
71696;SDS011;68167;59.120;37.898;2024-03-02T11:48:06;10.37;;;6.03;;
71696;SDS011;68167;59.120;37.898;2024-03-02T11:53:06;9.57;;;5.80;;
71696;SDS011;68167;59.120;37.898;2024-03-02T11:55:35;11.17;;;6.03;;
71696;SDS011;68167;59.120;37.898;2024-03-02T11:58:05;11.13;;;6.33;;
71696;SDS011;68167;59.120;37.898;2024-03-02T12:00:35;9.53;;;6.03;;
71696;SDS011;68167;59.120;37.898;2024-03-02T12:03:03;12.80;;;6.57;;
71696;SDS011;68167;59.120;37.898;2024-03-02T12:05:31;11.90;;;6.63;;
71696;SDS011;68167;59.120;37.898;2024-03-02T12:07:58;11.77;;;7.13;;
71696;SDS011;68167;59.120;37.898;2024-03-02T12:10:26;13.87;;;6.77;;
71696;SDS011;68167;59.120;37.898;2024-03-02T12:13:03;13.50;;;7.17;;
71696;SDS011;68167;59.120;37.898;2024-03-02T12:15:31;9.40;;;6.20;;
71696;SDS011;68167;59.120;37.898;2024-03-02T12:17:59;8.30;;;6.23;;
71696;SDS011;68167;59.120;37.898;2024-03-02T12:20:28;9.63;;;6.20;;
71696;SDS011;68167;59.120;37.898;2024-03-02T12:22:57;9.07;;;5.93;;
71696;SDS011;68167;59.120;37.898;2024-03-02T12:25:27;12.73;;;6.90;;
71696;SDS011;68167;59.120;37.898;2024-03-02T12:27:54;13.97;;;7.57;;
71696;SDS011;68167;59.120;37.898;2024-03-02T12:30:22;10.33;;;6.60;;
71696;SDS011;68167;59.120;37.898;2024-03-02T12:32:53;11.77;;;6.97;;
71696;SDS011;68167;59.120;37.898;2024-03-02T12:35:20;11.77;;;7.33;;
71696;SDS011;68167;59.120;37.898;2024-03-02T12:37:47;12.53;;;7.60;;
71696;SDS011;68167;59.120;37.898;2024-03-02T12:40:18;15.33;;;8.10;;
71696;SDS011;68167;59.120;37.898;2024-03-02T12:42:46;11.50;;;6.80;;
71696;SDS011;68167;59.120;37.898;2024-03-02T12:45:13;14.37;;;7.20;;
71696;SDS011;68167;59.120;37.898;2024-03-02T12:47:40;10.27;;;5.83;;
71696;SDS011;68167;59.120;37.898;2024-03-02T12:50:07;7.47;;;4.80;;
71696;SDS011;68167;59.120;37.898;2024-03-02T12:52:34;6.20;;;4.40;;
71696;SDS011;68167;59.120;37.898;2024-03-02T12:55:00;7.60;;;3.73;;
71696;SDS011;68167;59.120;37.898;2024-03-02T12:57:33;7.47;;;4.50;;
71696;SDS011;68167;59.120;37.898;2024-03-02T13:00:04;6.57;;;4.67;;
71696;SDS011;68167;59.120;37.898;2024-03-02T13:02:41;8.90;;;5.77;;
71696;SDS011;68167;59.120;37.898;2024-03-02T13:05:08;9.23;;;5.13;;
71696;SDS011;68167;59.120;37.898;2024-03-02T13:07:38;8.63;;;5.10;;
71696;SDS011;68167;59.120;37.898;2024-03-02T13:10:10;7.87;;;4.03;;
71696;SDS011;68167;59.120;37.898;2024-03-02T13:12:36;7.97;;;5.40;;
71696;SDS011;68167;59.120;37.898;2024-03-02T13:15:05;8.23;;;5.50;;
71696;SDS011;68167;59.120;37.898;2024-03-02T13:17:35;9.07;;;6.33;;
71696;SDS011;68167;59.120;37.898;2024-03-02T13:20:02;12.43;;;6.80;;
71696;SDS011;68167;59.120;37.898;2024-03-02T13:22:31;11.70;;;5.87;;
71696;SDS011;68167;59.120;37.898;2024-03-02T13:24:57;10.00;;;5.50;;
71696;SDS011;68167;59.120;37.898;2024-03-02T13:27:25;8.83;;;5.40;;
71696;SDS011;68167;59.120;37.898;2024-03-02T13:29:52;9.63;;;5.20;;
71696;SDS011;68167;59.120;37.898;2024-03-02T13:32:18;9.70;;;5.93;;
71696;SDS011;68167;59.120;37.898;2024-03-02T13:34:49;12.43;;;6.17;;
71696;SDS011;68167;59.120;37.898;2024-03-02T13:37:16;12.30;;;7.07;;
71696;SDS011;68167;59.120;37.898;2024-03-02T13:39:43;9.70;;;5.87;;
71696;SDS011;68167;59.120;37.898;2024-03-02T13:42:09;11.60;;;5.80;;
71696;SDS011;68167;59.120;37.898;2024-03-02T13:44:37;11.47;;;6.17;;
71696;SDS011;68167;59.120;37.898;2024-03-02T13:47:04;9.63;;;5.67;;
71696;SDS011;68167;59.120;37.898;2024-03-02T13:49:33;13.73;;;7.27;;
71696;SDS011;68167;59.120;37.898;2024-03-02T13:52:00;11.47;;;6.47;;
71696;SDS011;68167;59.120;37.898;2024-03-02T13:54:42;11.13;;;6.53;;
71696;SDS011;68167;59.120;37.898;2024-03-02T13:57:10;14.33;;;7.00;;
71696;SDS011;68167;59.120;37.898;2024-03-02T13:59:39;13.67;;;6.57;;
71696;SDS011;68167;59.120;37.898;2024-03-02T14:02:08;10.73;;;6.53;;
71696;SDS011;68167;59.120;37.898;2024-03-02T14:04:35;10.63;;;5.27;;
71696;SDS011;68167;59.120;37.898;2024-03-02T14:07:01;10.77;;;5.27;;
71696;SDS011;68167;59.120;37.898;2024-03-02T14:09:34;8.77;;;4.73;;
71696;SDS011;68167;59.120;37.898;2024-03-02T14:12:01;8.60;;;5.30;;
71696;SDS011;68167;59.120;37.898;2024-03-02T14:14:31;7.33;;;4.40;;
71696;SDS011;68167;59.120;37.898;2024-03-02T14:16:57;7.43;;;5.07;;
71696;SDS011;68167;59.120;37.898;2024-03-02T14:19:31;7.37;;;4.53;;
71696;SDS011;68167;59.120;37.898;2024-03-02T14:22:01;7.87;;;4.30;;
71696;SDS011;68167;59.120;37.898;2024-03-02T14:24:27;7.37;;;4.73;;
71696;SDS011;68167;59.120;37.898;2024-03-02T14:26:57;8.07;;;4.50;;
71696;SDS011;68167;59.120;37.898;2024-03-02T14:29:27;7.97;;;4.40;;
71696;SDS011;68167;59.120;37.898;2024-03-02T14:31:54;6.77;;;4.23;;
71696;SDS011;68167;59.120;37.898;2024-03-02T14:34:20;9.90;;;3.90;;
71696;SDS011;68167;59.120;37.898;2024-03-02T14:36:47;7.40;;;4.07;;
71696;SDS011;68167;59.120;37.898;2024-03-02T14:39:14;9.83;;;4.67;;
71696;SDS011;68167;59.120;37.898;2024-03-02T14:41:40;6.43;;;4.43;;
71696;SDS011;68167;59.120;37.898;2024-03-02T14:44:06;7.80;;;4.30;;
71696;SDS011;68167;59.120;37.898;2024-03-02T14:46:33;8.03;;;3.97;;
71696;SDS011;68167;59.120;37.898;2024-03-02T14:48:59;8.37;;;4.90;;
71696;SDS011;68167;59.120;37.898;2024-03-02T14:51:28;5.57;;;4.13;;
71696;SDS011;68167;59.120;37.898;2024-03-02T14:53:56;6.50;;;4.30;;
71696;SDS011;68167;59.120;37.898;2024-03-02T14:56:22;7.57;;;4.30;;